createdAt,value
2023-01-26T00:01:25.095Z,24.40
2023-01-26T00:03:51.918Z,28.03
2023-01-26T00:06:20.547Z,27.90
2023-01-26T00:08:59.126Z,26.40
2023-01-26T00:11:27.854Z,25.27
2023-01-26T00:13:56.271Z,28.07
2023-01-26T00:16:23.163Z,27.87
2023-01-26T00:18:50.482Z,25.23
2023-01-26T00:21:24.729Z,28.03
2023-01-26T00:23:52.607Z,25.20
2023-01-26T00:26:24.697Z,27.57
2023-01-26T00:28:52.374Z,29.07
2023-01-26T00:31:24.850Z,24.17
2023-01-26T00:33:53.174Z,27.93
2023-01-26T00:36:20.253Z,27.37
2023-01-26T00:38:47.119Z,25.33
2023-01-26T00:41:34.436Z,26.30
2023-01-26T00:44:01.724Z,28.00
2023-01-26T00:46:29.297Z,28.53
2023-01-26T00:48:56.306Z,30.40
2023-01-26T00:51:23.293Z,27.03
2023-01-26T00:53:50.009Z,27.07
2023-01-26T00:56:16.716Z,30.30
2023-01-26T00:58:45.462Z,27.37
2023-01-26T01:01:12.345Z,28.80
2023-01-26T01:03:39.083Z,26.53
2023-01-26T01:06:05.883Z,27.90
2023-01-26T01:08:32.586Z,24.83
2023-01-26T01:11:11.109Z,28.63
2023-01-26T01:13:38.802Z,25.37
2023-01-26T01:16:11.303Z,27.47
2023-01-26T01:18:38.343Z,28.27
2023-01-26T01:21:09.359Z,25.17
2023-01-26T01:23:36.330Z,26.90
2023-01-26T01:26:04.484Z,28.23
2023-01-26T01:28:32.283Z,25.67
2023-01-26T01:30:59.294Z,25.43
2023-01-26T01:33:26.160Z,28.77
2023-01-26T01:35:57.270Z,27.57
2023-01-26T01:38:24.062Z,32.30
2023-01-26T01:40:51.272Z,28.03
2023-01-26T01:43:18.209Z,30.97
2023-01-26T01:45:47.297Z,33.57
2023-01-26T01:48:43.627Z,29.87
2023-01-26T01:51:36.483Z,30.37
2023-01-26T01:54:08.470Z,36.33
2023-01-26T01:56:37.215Z,31.47
2023-01-26T01:59:07.351Z,34.00
2023-01-26T02:01:34.384Z,32.17
2023-01-26T02:04:04.620Z,31.70
2023-01-26T02:06:35.035Z,38.00
2023-01-26T02:09:03.390Z,34.53
2023-01-26T02:11:36.262Z,33.07
2023-01-26T02:14:25.243Z,32.20
2023-01-26T02:16:52.067Z,30.60
2023-01-26T02:19:38.890Z,31.93
2023-01-26T02:22:16.703Z,35.63
2023-01-26T02:24:44.076Z,30.67
2023-01-26T02:27:11.044Z,34.27
2023-01-26T02:29:38.194Z,31.63
2023-01-26T02:32:05.089Z,30.23
2023-01-26T02:34:31.878Z,31.93
2023-01-26T02:36:59.910Z,29.70
2023-01-26T02:39:47.486Z,28.80
2023-01-26T02:42:32.712Z,30.63
2023-01-26T02:44:59.570Z,27.87
2023-01-26T02:47:26.287Z,26.77
2023-01-26T02:49:53.026Z,26.73
2023-01-26T02:52:22.843Z,26.90
2023-01-26T02:55:08.241Z,25.53
2023-01-26T02:57:35.382Z,26.73
2023-01-26T03:00:03.693Z,23.40
2023-01-26T03:02:30.491Z,24.53
2023-01-26T03:04:57.252Z,27.73
2023-01-26T03:07:26.746Z,29.27
2023-01-26T03:09:53.508Z,25.97
2023-01-26T03:12:20.207Z,26.83
2023-01-26T03:15:06.881Z,25.40
2023-01-26T03:17:33.570Z,29.47
2023-01-26T03:20:19.028Z,27.57
2023-01-26T03:23:04.299Z,24.77
2023-01-26T03:25:49.816Z,28.03
2023-01-26T03:28:22.214Z,25.70
2023-01-26T03:30:49.957Z,25.57
2023-01-26T03:33:17.675Z,25.77
2023-01-26T03:35:44.924Z,31.23
2023-01-26T03:38:12.125Z,29.93
2023-01-26T03:40:58.033Z,30.93
2023-01-26T03:43:43.601Z,28.30
2023-01-26T03:46:29.220Z,26.90
2023-01-26T03:49:14.610Z,30.57
2023-01-26T03:52:00.092Z,32.00
2023-01-26T03:54:45.643Z,27.40
2023-01-26T03:57:12.541Z,29.03
2023-01-26T03:59:39.363Z,31.33
2023-01-26T04:02:26.492Z,27.87
2023-01-26T04:05:12.176Z,26.67
2023-01-26T04:07:57.857Z,30.17
2023-01-26T04:10:25.344Z,27.90
2023-01-26T04:13:10.790Z,29.37
2023-01-26T04:15:56.761Z,26.83
2023-01-26T04:18:42.293Z,28.73
2023-01-26T04:21:28.226Z,29.53
2023-01-26T04:23:58.754Z,30.20
2023-01-26T04:26:35.734Z,30.60
2023-01-26T04:29:13.161Z,29.10
2023-01-26T04:31:40.761Z,28.70
2023-01-26T04:34:12.323Z,30.47
2023-01-26T04:36:39.957Z,31.93
2023-01-26T04:39:07.055Z,26.30
2023-01-26T04:41:34.240Z,25.07
2023-01-26T04:44:01.538Z,25.53
2023-01-26T04:46:28.366Z,25.60
2023-01-26T04:48:55.132Z,24.20
2023-01-26T04:51:22.689Z,22.10
2023-01-26T04:53:50.073Z,24.73
2023-01-26T04:56:26.009Z,27.30
2023-01-26T04:58:53.733Z,24.37
2023-01-26T05:01:20.874Z,24.53
2023-01-26T05:03:47.962Z,28.03
2023-01-26T05:06:14.923Z,25.07
2023-01-26T05:08:41.750Z,27.97
2023-01-26T05:11:08.689Z,25.00
2023-01-26T05:13:36.055Z,26.93
2023-01-26T05:16:03.945Z,28.03
2023-01-26T05:18:30.912Z,24.13
2023-01-26T05:20:58.234Z,26.50
2023-01-26T05:23:25.361Z,25.13
2023-01-26T05:25:52.184Z,22.83
2023-01-26T05:28:19.105Z,23.00
2023-01-26T05:30:46.862Z,25.67
2023-01-26T05:33:13.730Z,23.40
2023-01-26T05:35:40.477Z,22.70
2023-01-26T05:38:07.197Z,25.20
2023-01-26T05:40:33.940Z,25.03
2023-01-26T05:43:00.894Z,23.37
2023-01-26T05:45:27.876Z,26.07
2023-01-26T05:47:54.708Z,25.17
2023-01-26T05:50:21.666Z,21.40
2023-01-26T05:52:49.869Z,23.20
2023-01-26T05:55:16.721Z,23.43
2023-01-26T05:57:43.504Z,24.10
2023-01-26T06:00:11.790Z,23.33
2023-01-26T06:02:38.977Z,23.07
2023-01-26T06:05:06.489Z,22.20
2023-01-26T06:07:33.264Z,24.73
2023-01-26T06:10:00.178Z,24.90
2023-01-26T06:12:31.546Z,21.07
2023-01-26T06:14:58.877Z,25.27
2023-01-26T06:17:25.696Z,27.50
2023-01-26T06:19:52.429Z,24.03
2023-01-26T06:22:19.575Z,24.70
2023-01-26T06:24:47.175Z,25.37
2023-01-26T06:27:15.891Z,26.13
2023-01-26T06:29:43.335Z,23.77
2023-01-26T06:32:16.207Z,27.07
2023-01-26T06:34:43.044Z,23.83
2023-01-26T06:37:10.943Z,25.60
2023-01-26T06:39:37.794Z,22.47
2023-01-26T06:42:04.871Z,24.37
2023-01-26T06:44:31.578Z,27.17
2023-01-26T06:46:58.275Z,27.57
2023-01-26T06:49:25.015Z,27.10
2023-01-26T06:52:03.158Z,26.73
2023-01-26T06:54:29.909Z,25.90
2023-01-26T06:56:56.700Z,24.53
2023-01-26T06:59:23.447Z,23.03
2023-01-26T07:01:50.187Z,22.73
2023-01-26T07:04:18.412Z,25.10
2023-01-26T07:06:45.366Z,25.43
2023-01-26T07:09:12.264Z,28.30
2023-01-26T07:11:39.089Z,27.63
2023-01-26T07:14:06.070Z,26.73
2023-01-26T07:16:33.951Z,26.23
2023-01-26T07:19:01.296Z,26.17
2023-01-26T07:21:28.136Z,28.17
2023-01-26T07:23:56.143Z,28.97
2023-01-26T07:26:23.088Z,24.37
2023-01-26T07:28:49.879Z,23.67
2023-01-26T07:31:16.796Z,24.83
2023-01-26T07:33:43.635Z,23.80
2023-01-26T07:36:11.133Z,25.60
2023-01-26T07:38:38.359Z,21.53
2023-01-26T07:41:07.809Z,22.80
2023-01-26T07:43:36.387Z,23.43
2023-01-26T07:46:03.384Z,24.17
2023-01-26T07:48:30.792Z,20.23
2023-01-26T07:51:04.844Z,19.60
2023-01-26T07:53:34.181Z,23.70
2023-01-26T07:56:08.050Z,23.50
2023-01-26T07:58:36.193Z,24.73
2023-01-26T08:01:21.997Z,25.27
2023-01-26T08:03:51.203Z,22.40
2023-01-26T08:06:18.585Z,21.60
2023-01-26T08:08:50.934Z,24.20
2023-01-26T08:11:19.408Z,22.10
2023-01-26T08:13:46.105Z,21.63
2023-01-26T08:16:13.201Z,23.03
2023-01-26T08:18:41.990Z,22.17
2023-01-26T08:21:10.179Z,21.20
2023-01-26T08:23:37.184Z,22.33
2023-01-26T08:26:06.139Z,21.23
2023-01-26T08:28:33.791Z,22.03
2023-01-26T08:31:20.946Z,22.97
2023-01-26T08:33:53.343Z,23.80
2023-01-26T08:36:22.534Z,23.60
2023-01-26T08:38:50.220Z,23.73
2023-01-26T08:41:16.953Z,21.93
2023-01-26T08:43:43.694Z,25.53
2023-01-26T08:46:10.857Z,74.20
2023-01-26T08:48:38.622Z,33.70
2023-01-26T08:51:07.042Z,29.17
2023-01-26T08:53:37.418Z,22.40
2023-01-26T08:56:10.252Z,22.77
2023-01-26T08:58:37.410Z,21.60
2023-01-26T09:01:10.477Z,21.27
2023-01-26T09:03:37.809Z,29.23
2023-01-26T09:06:06.510Z,27.57
2023-01-26T09:08:33.215Z,25.23
2023-01-26T09:11:00.499Z,24.43
2023-01-26T09:13:27.413Z,23.23
2023-01-26T09:15:54.311Z,23.50
2023-01-26T09:18:21.125Z,22.33
2023-01-26T09:20:47.899Z,19.77
2023-01-26T09:23:16.908Z,23.23
2023-01-26T09:25:43.741Z,20.77
2023-01-26T09:28:10.645Z,18.70
2023-01-26T09:30:37.407Z,19.03
2023-01-26T09:33:06.040Z,19.83
2023-01-26T09:35:33.151Z,22.87
2023-01-26T09:37:59.968Z,21.07
2023-01-26T09:40:43.759Z,21.47
2023-01-26T09:43:41.744Z,19.23
2023-01-26T09:46:40.523Z,17.53
2023-01-26T09:49:13.918Z,20.87
2023-01-26T09:51:43.565Z,23.37
2023-01-26T09:54:26.815Z,21.17
2023-01-26T09:56:55.842Z,20.67
2023-01-26T09:59:28.624Z,21.63
2023-01-26T10:02:13.412Z,19.17
2023-01-26T10:04:44.114Z,22.10
2023-01-26T10:07:13.055Z,20.53
2023-01-26T10:09:43.356Z,23.63
2023-01-26T10:12:34.415Z,22.43
2023-01-26T10:15:19.877Z,22.27
2023-01-26T10:17:49.480Z,23.30
2023-01-26T10:20:37.376Z,27.17
2023-01-26T10:23:24.611Z,30.17
2023-01-26T10:25:54.186Z,26.97
2023-01-26T10:28:28.765Z,25.03
2023-01-26T10:30:55.970Z,23.97
2023-01-26T10:33:33.349Z,22.97
2023-01-26T10:36:05.216Z,20.80
2023-01-26T10:38:37.870Z,24.70
2023-01-26T10:41:20.078Z,26.13
2023-01-26T10:43:56.191Z,24.37
2023-01-26T10:46:38.049Z,24.23
2023-01-26T10:49:14.623Z,26.40
2023-01-26T10:51:45.213Z,22.30
2023-01-26T10:54:24.101Z,23.87
2023-01-26T10:56:57.241Z,25.77
2023-01-26T10:59:50.514Z,28.23
2023-01-26T11:02:20.175Z,25.93
2023-01-26T11:05:08.695Z,25.50
2023-01-26T11:07:38.656Z,28.50
2023-01-26T11:10:28.201Z,23.40
2023-01-26T11:13:21.452Z,26.53
2023-01-26T11:15:52.361Z,25.70
2023-01-26T11:18:55.671Z,28.97
2023-01-26T11:21:45.385Z,26.57
2023-01-26T11:24:39.856Z,25.90
2023-01-26T11:27:13.449Z,25.80
2023-01-26T11:30:01.988Z,24.97
2023-01-26T11:32:38.292Z,27.00
2023-01-26T11:35:26.397Z,27.67
2023-01-26T11:38:33.367Z,29.23
2023-01-26T11:41:20.168Z,26.40
2023-01-26T11:44:03.232Z,31.27
2023-01-26T11:46:52.398Z,24.70
2023-01-26T11:49:34.641Z,27.13
2023-01-26T11:52:10.139Z,29.90
2023-01-26T11:54:43.040Z,26.43
2023-01-26T11:57:15.799Z,25.63
2023-01-26T11:59:57.276Z,28.83
2023-01-26T12:02:42.081Z,25.40
2023-01-26T12:05:31.459Z,28.27
2023-01-26T12:08:06.099Z,30.63
2023-01-26T12:11:25.228Z,31.73
2023-01-26T12:14:22.288Z,32.90
2023-01-26T12:17:18.033Z,28.10
2023-01-26T12:19:45.255Z,29.00
2023-01-26T12:22:19.512Z,24.00
2023-01-26T12:25:20.847Z,28.00
2023-01-26T12:27:48.713Z,23.73
2023-01-26T12:30:41.462Z,29.77
2023-01-26T12:33:10.817Z,27.03
2023-01-26T12:35:58.393Z,33.10
2023-01-26T12:38:44.984Z,29.43
2023-01-26T12:41:29.795Z,25.23
2023-01-26T12:43:56.444Z,29.27
2023-01-26T12:46:27.022Z,23.43
2023-01-26T12:49:01.784Z,25.07
2023-01-26T12:51:37.182Z,27.03
2023-01-26T12:54:18.352Z,26.87
2023-01-26T12:56:50.464Z,26.20
2023-01-26T12:59:47.872Z,18.80
2023-01-26T13:02:29.291Z,18.77
2023-01-26T13:04:59.295Z,20.23
2023-01-26T13:07:33.876Z,16.57
2023-01-26T13:10:16.230Z,17.73
2023-01-26T13:12:55.932Z,19.17
2023-01-26T13:15:26.033Z,15.57
2023-01-26T13:18:04.156Z,18.70
2023-01-26T13:20:40.108Z,16.67
2023-01-26T13:23:40.297Z,16.43
2023-01-26T13:26:33.584Z,17.77
2023-01-26T13:29:25.178Z,16.53
2023-01-26T13:31:52.776Z,16.67
2023-01-26T13:34:32.240Z,16.43
2023-01-26T13:37:08.155Z,16.67
2023-01-26T13:39:37.052Z,15.57
2023-01-26T13:42:16.517Z,18.30
2023-01-26T13:44:51.120Z,17.70
2023-01-26T13:47:36.080Z,14.77
2023-01-26T13:50:33.966Z,18.07
2023-01-26T13:53:01.066Z,16.40
2023-01-26T13:55:31.477Z,15.30
2023-01-26T13:58:30.704Z,20.83
2023-01-26T14:01:06.432Z,15.87
2023-01-26T14:03:33.727Z,14.83
2023-01-26T14:06:02.219Z,17.73
2023-01-26T14:08:31.009Z,18.10
2023-01-26T14:10:59.423Z,14.80
2023-01-26T14:13:31.456Z,16.23
2023-01-26T14:16:01.065Z,12.10
2023-01-26T14:18:28.703Z,15.40
2023-01-26T14:21:14.307Z,12.53
2023-01-26T14:23:41.037Z,12.50
2023-01-26T14:26:30.614Z,11.60
2023-01-26T14:29:00.366Z,10.97
2023-01-26T14:31:29.328Z,12.53
2023-01-26T14:33:58.852Z,14.97
2023-01-26T14:36:33.147Z,13.87
2023-01-26T14:39:01.165Z,11.63
2023-01-26T14:41:31.786Z,11.50
2023-01-26T14:44:04.171Z,10.90
2023-01-26T14:46:36.730Z,11.63
2023-01-26T14:49:17.891Z,11.90
2023-01-26T14:51:46.657Z,10.93
2023-01-26T14:54:25.805Z,11.80
2023-01-26T14:56:52.760Z,9.73
2023-01-26T14:59:25.611Z,10.33
2023-01-26T15:02:14.573Z,13.47
2023-01-26T15:04:45.807Z,12.13
2023-01-26T15:07:31.046Z,15.00
2023-01-26T15:09:57.771Z,24.20
2023-01-26T15:12:24.709Z,12.13
2023-01-26T15:14:57.029Z,10.03
2023-01-26T15:17:38.705Z,10.63
2023-01-26T15:20:23.773Z,10.63
2023-01-26T15:22:52.684Z,11.63
2023-01-26T15:25:27.929Z,13.00
2023-01-26T15:27:59.586Z,10.83
2023-01-26T15:30:29.155Z,10.10
2023-01-26T15:32:56.067Z,10.03
2023-01-26T15:35:26.857Z,12.83
2023-01-26T15:38:03.616Z,11.23
2023-01-26T15:40:30.951Z,11.60
2023-01-26T15:43:15.011Z,14.20
2023-01-26T15:45:54.283Z,11.37
2023-01-26T15:48:22.049Z,10.87
2023-01-26T15:50:48.918Z,9.80
2023-01-26T15:53:19.965Z,12.73
2023-01-26T15:55:52.992Z,11.53
2023-01-26T15:58:20.153Z,13.07
2023-01-26T16:00:47.463Z,13.03
2023-01-26T16:03:19.098Z,13.20
2023-01-26T16:05:50.159Z,11.10
2023-01-26T16:08:18.580Z,12.60
2023-01-26T16:10:46.518Z,11.97
2023-01-26T16:13:17.905Z,12.63
2023-01-26T16:15:46.571Z,11.87
2023-01-26T16:18:13.464Z,10.33
2023-01-26T16:20:42.359Z,13.63
2023-01-26T16:23:21.084Z,12.17
2023-01-26T16:25:48.415Z,13.50
2023-01-26T16:28:15.542Z,15.67
2023-01-26T16:30:43.963Z,18.23
2023-01-26T16:33:16.087Z,17.43
2023-01-26T16:35:43.226Z,17.73
2023-01-26T16:38:13.169Z,19.30
2023-01-26T16:40:45.480Z,23.67
2023-01-26T16:43:22.034Z,20.43
2023-01-26T16:45:50.478Z,14.33
2023-01-26T16:48:17.654Z,14.10
2023-01-26T16:50:45.393Z,19.43
2023-01-26T16:53:33.080Z,12.93
2023-01-26T16:55:59.821Z,10.97
2023-01-26T16:58:27.020Z,13.17
2023-01-26T17:00:55.322Z,13.23
2023-01-26T17:03:22.476Z,13.90
2023-01-26T17:05:50.595Z,11.50
2023-01-26T17:08:17.468Z,15.67
2023-01-26T17:11:00.606Z,14.53
2023-01-26T17:13:28.204Z,15.30
2023-01-26T17:15:56.559Z,18.57
2023-01-26T17:18:23.485Z,37.80
2023-01-26T17:20:50.205Z,34.20
2023-01-26T17:23:16.917Z,23.70
2023-01-26T17:25:43.660Z,27.67
2023-01-26T17:28:10.461Z,23.30
2023-01-26T17:30:37.732Z,28.43
2023-01-26T17:33:04.455Z,23.70
2023-01-26T17:35:31.192Z,26.50
2023-01-26T17:37:57.918Z,24.13
2023-01-26T17:40:24.609Z,27.47
2023-01-26T17:42:51.358Z,22.23
2023-01-26T17:45:18.083Z,27.53
2023-01-26T17:47:44.909Z,26.67
2023-01-26T17:50:11.647Z,29.17
2023-01-26T17:52:38.425Z,32.73
2023-01-26T17:55:06.312Z,21.03
2023-01-26T17:57:33.926Z,19.90
2023-01-26T18:00:00.705Z,17.03
2023-01-26T18:02:27.515Z,16.43
2023-01-26T18:04:54.292Z,16.97
2023-01-26T18:07:21.104Z,19.20
2023-01-26T18:09:47.956Z,15.47
2023-01-26T18:12:14.674Z,13.23
2023-01-26T18:14:41.929Z,17.83
2023-01-26T18:17:08.684Z,16.10
2023-01-26T18:19:35.467Z,16.77
2023-01-26T18:22:02.291Z,16.70
2023-01-26T18:24:29.064Z,14.10
2023-01-26T18:26:55.804Z,17.57
2023-01-26T18:29:22.521Z,16.40
2023-01-26T18:31:49.424Z,15.73
2023-01-26T18:34:16.258Z,15.40
2023-01-26T18:36:42.967Z,14.83
2023-01-26T18:39:13.732Z,16.93
2023-01-26T18:41:40.884Z,15.53
2023-01-26T18:44:08.342Z,20.53
2023-01-26T18:46:35.190Z,18.00
2023-01-26T18:49:03.501Z,20.63
2023-01-26T18:51:32.693Z,19.93
2023-01-26T18:53:59.911Z,16.63
2023-01-26T18:56:27.033Z,20.53
2023-01-26T18:58:54.130Z,19.93
2023-01-26T19:01:22.170Z,15.67
2023-01-26T19:03:54.852Z,15.60
2023-01-26T19:06:23.796Z,16.93
2023-01-26T19:08:58.478Z,20.80
2023-01-26T19:11:30.910Z,19.50
2023-01-26T19:13:58.729Z,18.23
2023-01-26T19:16:25.944Z,18.47
2023-01-26T19:18:55.369Z,18.10
2023-01-26T19:21:24.616Z,21.73
2023-01-26T19:23:53.243Z,19.13
2023-01-26T19:26:23.010Z,19.23
2023-01-26T19:28:50.986Z,18.40
2023-01-26T19:31:19.798Z,18.50
2023-01-26T19:33:51.099Z,19.03
2023-01-26T19:36:18.217Z,17.63
2023-01-26T19:38:45.159Z,17.83
2023-01-26T19:41:12.400Z,18.70
2023-01-26T19:43:39.440Z,17.63
2023-01-26T19:46:08.395Z,18.27
2023-01-26T19:48:35.290Z,18.37
2023-01-26T19:51:05.371Z,21.53
2023-01-26T19:53:34.500Z,20.10
2023-01-26T19:56:10.459Z,22.23
2023-01-26T19:58:37.525Z,22.23
2023-01-26T20:01:09.886Z,21.27
2023-01-26T20:03:37.052Z,21.60
2023-01-26T20:06:04.953Z,20.87
2023-01-26T20:08:32.389Z,21.83
2023-01-26T20:11:06.133Z,23.87
2023-01-26T20:13:34.294Z,19.83
2023-01-26T20:16:02.050Z,25.30
2023-01-26T20:18:28.846Z,20.67
2023-01-26T20:20:56.481Z,22.93
2023-01-26T20:23:24.576Z,23.00
2023-01-26T20:25:51.763Z,21.77
2023-01-26T20:28:19.087Z,25.20
2023-01-26T20:30:45.891Z,23.23
2023-01-26T20:33:12.826Z,22.13
2023-01-26T20:35:40.751Z,25.13
2023-01-26T20:38:07.493Z,21.70
2023-01-26T20:40:34.221Z,21.07
2023-01-26T20:43:02.496Z,18.50
2023-01-26T20:45:29.665Z,23.77
2023-01-26T20:47:56.481Z,26.10
2023-01-26T20:50:23.192Z,23.60
2023-01-26T20:52:49.944Z,23.57
2023-01-26T20:55:16.899Z,23.60
2023-01-26T20:57:43.683Z,21.70
2023-01-26T21:00:11.591Z,23.40
2023-01-26T21:02:38.552Z,22.70
2023-01-26T21:05:07.193Z,22.37
2023-01-26T21:07:33.968Z,20.57
2023-01-26T21:10:00.692Z,22.53
2023-01-26T21:12:28.103Z,20.80
2023-01-26T21:14:54.790Z,24.40
2023-01-26T21:17:22.797Z,23.57
2023-01-26T21:19:49.935Z,27.33
2023-01-26T21:22:16.807Z,26.30
2023-01-26T21:24:43.545Z,28.13
2023-01-26T21:27:10.299Z,26.83
2023-01-26T21:29:40.288Z,22.67
2023-01-26T21:32:07.625Z,22.67
2023-01-26T21:34:34.666Z,20.90
2023-01-26T21:37:01.408Z,24.90
2023-01-26T21:39:28.221Z,23.13
2023-01-26T21:41:58.970Z,19.97
2023-01-26T21:44:28.215Z,21.60
2023-01-26T21:47:00.683Z,26.90
2023-01-26T21:49:30.850Z,22.70
2023-01-26T21:52:16.729Z,21.03
2023-01-26T21:54:43.501Z,19.23
2023-01-26T21:57:29.975Z,17.80
2023-01-26T21:59:56.845Z,19.27
2023-01-26T22:02:24.008Z,21.07
2023-01-26T22:04:50.912Z,17.90
2023-01-26T22:07:17.596Z,23.13
2023-01-26T22:09:44.370Z,18.57
2023-01-26T22:12:11.116Z,21.83
2023-01-26T22:14:37.823Z,20.67
2023-01-26T22:17:05.210Z,20.53
2023-01-26T22:19:31.924Z,21.97
2023-01-26T22:21:58.708Z,24.93
2023-01-26T22:24:25.537Z,22.03
2023-01-26T22:26:52.327Z,21.60
2023-01-26T22:29:19.085Z,22.20
2023-01-26T22:31:45.883Z,20.13
2023-01-26T22:34:12.765Z,21.03
2023-01-26T22:36:40.275Z,18.50
2023-01-26T22:39:07.877Z,21.33
2023-01-26T22:41:35.954Z,23.27
2023-01-26T22:44:02.823Z,18.23
2023-01-26T22:46:30.702Z,22.07
2023-01-26T22:48:59.058Z,23.87
2023-01-26T22:51:31.454Z,25.33
2023-01-26T22:53:59.358Z,24.30
2023-01-26T22:56:27.014Z,27.07
2023-01-26T22:58:58.525Z,28.00
2023-01-26T23:01:28.592Z,26.90
2023-01-26T23:03:56.522Z,32.07
2023-01-26T23:06:24.176Z,32.30
2023-01-26T23:08:50.954Z,30.13
2023-01-26T23:11:25.570Z,27.33
2023-01-26T23:13:54.333Z,28.80
2023-01-26T23:16:23.490Z,33.70
2023-01-26T23:18:55.263Z,30.80
2023-01-26T23:21:22.542Z,29.03
2023-01-26T23:23:49.434Z,34.10
2023-01-26T23:26:16.610Z,32.37
2023-01-26T23:28:44.156Z,29.13
2023-01-26T23:31:13.159Z,29.80
2023-01-26T23:33:40.588Z,25.80
2023-01-26T23:36:08.586Z,30.57
2023-01-26T23:38:35.591Z,27.70
2023-01-26T23:41:02.854Z,28.60
2023-01-26T23:43:29.585Z,27.87
2023-01-26T23:45:56.879Z,27.73
2023-01-26T23:48:24.404Z,31.93
2023-01-26T23:51:05.420Z,25.37
2023-01-26T23:53:32.962Z,28.73
2023-01-26T23:56:03.421Z,26.23
2023-01-26T23:58:30.123Z,28.27
